Time;durP1;ratioP1;P1;durP2;ratioP2;P2;SDS_P1;SDS_P2;PMS_P1;PMS_P2;Temp;Humidity;BMP_temperature;BMP_pressure;BME280_temperature;BME280_humidity;BME280_pressure;Samples;Min_cycle;Max_cycle;Signal;HPM_P1;HPM_P2
2022/07/05 00:02:11;;;;;;;6.03;1.50;;;;;;;;;;5001769;28;20517;-78
2022/07/05 00:04:36;;;;;;;9.18;1.77;;;;;;;;;;5001475;28;20141;-80
2022/07/05 00:07:19;;;;;;;5.15;1.52;;;;;;;;;;4984068;28;20058;-81
2022/07/05 00:09:49;;;;;;;6.88;1.50;;;;;;;;;;5000982;28;20234;-79
2022/07/05 00:12:15;;;;;;;11.95;1.80;;;;;;;;;;5000765;28;20090;-81
2022/07/05 00:14:42;;;;;;;5.57;1.60;;;;;;;;;;5000689;28;20318;-80
2022/07/05 00:17:08;;;;;;;8.88;1.45;;;;;;;;;;5000927;28;20027;-81
2022/07/05 00:19:34;;;;;;;6.75;1.70;;;;;;;;;;5000966;28;20015;-82
2022/07/05 00:21:59;;;;;;;6.93;1.77;;;;;;;;;;4999017;28;20395;-81
2022/07/05 00:24:26;;;;;;;6.88;1.60;;;;;;;;;;5000536;28;20034;-82
2022/07/05 00:26:51;;;;;;;6.80;1.80;;;;;;;;;;4999594;28;20041;-79
2022/07/05 00:29:17;;;;;;;5.70;1.63;;;;;;;;;;5001003;28;20100;-79
2022/07/05 00:31:42;;;;;;;9.48;1.77;;;;;;;;;;5000591;28;20360;-75
2022/07/05 00:34:07;;;;;;;8.73;1.70;;;;;;;;;;5000781;28;20022;-75
2022/07/05 00:36:33;;;;;;;8.90;1.75;;;;;;;;;;5000887;28;20077;-78
2022/07/05 00:38:58;;;;;;;6.63;1.70;;;;;;;;;;5000440;28;20034;-76
2022/07/05 00:41:25;;;;;;;6.45;1.65;;;;;;;;;;5000694;28;20097;-75
2022/07/05 00:43:59;;;;;;;8.80;1.80;;;;;;;;;;5000297;28;20221;-79
2022/07/05 00:46:25;;;;;;;7.35;1.63;;;;;;;;;;5000227;28;20587;-75
2022/07/05 00:48:52;;;;;;;6.20;1.55;;;;;;;;;;5000102;28;20038;-75
2022/07/05 00:51:18;;;;;;;5.53;1.40;;;;;;;;;;5000343;28;20080;-75
2022/07/05 00:53:44;;;;;;;8.00;1.50;;;;;;;;;;5000672;28;20046;-75
2022/07/05 00:56:11;;;;;;;4.95;1.33;;;;;;;;;;4983115;28;20109;-75
2022/07/05 00:58:36;;;;;;;7.72;1.98;;;;;;;;;;5000415;28;20419;-74
2022/07/05 01:01:04;;;;;;;5.35;1.67;;;;;;;;;;5000381;28;20077;-75
2022/07/05 01:03:30;;;;;;;9.15;1.70;;;;;;;;;;5000137;28;20426;-75
2022/07/05 01:05:55;;;;;;;5.43;1.60;;;;;;;;;;4983122;28;20029;-77
2022/07/05 01:08:23;;;;;;;5.93;1.58;;;;;;;;;;5000473;28;20261;-74
2022/07/05 01:10:50;;;;;;;8.30;1.65;;;;;;;;;;4982850;28;20057;-75
2022/07/05 01:13:16;;;;;;;5.88;1.33;;;;;;;;;;5000287;28;20077;-75
2022/07/05 01:15:42;;;;;;;9.13;1.73;;;;;;;;;;5000384;28;20321;-75
2022/07/05 01:18:08;;;;;;;5.80;1.50;;;;;;;;;;4998398;28;20678;-78
2022/07/05 01:20:34;;;;;;;6.10;1.70;;;;;;;;;;4998203;28;20023;-74
2022/07/05 01:23:02;;;;;;;8.93;1.90;;;;;;;;;;4999986;28;20049;-76
2022/07/05 01:25:29;;;;;;;7.13;1.55;;;;;;;;;;5000634;28;20054;-75
2022/07/05 01:27:56;;;;;;;8.25;1.75;;;;;;;;;;5000415;28;20096;-76
2022/07/05 01:30:21;;;;;;;8.23;1.98;;;;;;;;;;4999942;28;20038;-74
2022/07/05 01:32:47;;;;;;;6.90;1.70;;;;;;;;;;4995728;28;20034;-74
2022/07/05 01:35:13;;;;;;;6.97;1.50;;;;;;;;;;4981611;28;20025;-76
2022/07/05 01:37:39;;;;;;;8.13;1.80;;;;;;;;;;4984972;28;20022;-75
2022/07/05 01:40:06;;;;;;;8.45;1.70;;;;;;;;;;5000879;28;20374;-74
2022/07/05 01:42:32;;;;;;;6.60;1.80;;;;;;;;;;4998149;28;20085;-78
2022/07/05 01:44:57;;;;;;;9.70;1.67;;;;;;;;;;5001377;28;20022;-74
2022/07/05 01:47:23;;;;;;;7.90;1.63;;;;;;;;;;5003610;28;20030;-74
2022/07/05 01:49:53;;;;;;;9.68;1.90;;;;;;;;;;5002363;28;20473;-75
2022/07/05 01:52:21;;;;;;;8.10;1.70;;;;;;;;;;5000188;28;20030;-79
2022/07/05 01:54:47;;;;;;;4.97;1.48;;;;;;;;;;4993712;28;20190;-75
2022/07/05 01:57:12;;;;;;;7.72;1.77;;;;;;;;;;4993291;28;20141;-77
2022/07/05 01:59:38;;;;;;;6.32;1.65;;;;;;;;;;4994636;28;20031;-79
2022/07/05 02:02:05;;;;;;;9.57;1.70;;;;;;;;;;4979960;28;20030;-75
2022/07/05 02:04:33;;;;;;;6.63;1.80;;;;;;;;;;4993465;28;20034;-78
2022/07/05 02:06:59;;;;;;;10.70;1.75;;;;;;;;;;4993390;28;20041;-78
2022/07/05 02:09:25;;;;;;;8.00;1.70;;;;;;;;;;4993550;28;20034;-79
2022/07/05 02:11:53;;;;;;;8.02;1.65;;;;;;;;;;4975934;28;20041;-79
2022/07/05 02:14:19;;;;;;;6.15;1.60;;;;;;;;;;4993697;28;20502;-78
2022/07/05 02:16:44;;;;;;;7.15;1.60;;;;;;;;;;4993329;28;20027;-77
2022/07/05 02:19:09;;;;;;;6.80;1.73;;;;;;;;;;4993162;28;20018;-80
2022/07/05 02:21:35;;;;;;;7.13;1.63;;;;;;;;;;4997376;28;20286;-79
2022/07/05 02:24:00;;;;;;;6.82;1.80;;;;;;;;;;4993244;28;20027;-78
2022/07/05 02:26:26;;;;;;;5.30;1.50;;;;;;;;;;4999285;28;20034;-77
2022/07/05 02:28:51;;;;;;;8.52;1.60;;;;;;;;;;4995291;28;20022;-78
2022/07/05 02:31:17;;;;;;;5.90;1.58;;;;;;;;;;4992911;28;20057;-78
2022/07/05 02:33:42;;;;;;;10.20;1.95;;;;;;;;;;4993112;28;20018;-78
2022/07/05 02:36:13;;;;;;;8.43;1.50;;;;;;;;;;4993185;28;20053;-79
2022/07/05 02:38:39;;;;;;;5.13;1.52;;;;;;;;;;4992728;28;20490;-80
2022/07/05 02:41:06;;;;;;;10.60;1.83;;;;;;;;;;4993014;28;20638;-79
2022/07/05 02:43:32;;;;;;;7.15;1.85;;;;;;;;;;4992759;28;20513;-81
2022/07/05 02:45:57;;;;;;;8.43;2.03;;;;;;;;;;4994619;28;20037;-81
2022/07/05 02:48:23;;;;;;;5.80;1.73;;;;;;;;;;4993352;28;20069;-78
2022/07/05 02:50:48;;;;;;;7.20;1.73;;;;;;;;;;4992724;28;20045;-82
2022/07/05 02:53:14;;;;;;;7.78;2.00;;;;;;;;;;4992594;28;20026;-83
2022/07/05 02:55:39;;;;;;;7.78;1.88;;;;;;;;;;4992558;28;20039;-83
2022/07/05 02:58:04;;;;;;;8.30;2.00;;;;;;;;;;4992424;28;20033;-83
2022/07/05 03:00:30;;;;;;;8.60;1.90;;;;;;;;;;4992831;28;20019;-83
2022/07/05 03:02:56;;;;;;;7.43;1.90;;;;;;;;;;4992374;28;20053;-84
2022/07/05 03:05:21;;;;;;;7.57;2.00;;;;;;;;;;4992470;28;20106;-83
2022/07/05 03:07:47;;;;;;;8.25;1.98;;;;;;;;;;4992095;28;20023;-83
2022/07/05 03:10:12;;;;;;;9.63;1.80;;;;;;;;;;4992588;28;20529;-83
2022/07/05 03:12:37;;;;;;;6.65;2.08;;;;;;;;;;4992554;28;20418;-83
2022/07/05 03:15:03;;;;;;;9.10;1.90;;;;;;;;;;4992354;28;20100;-83
2022/07/05 03:17:29;;;;;;;6.82;2.00;;;;;;;;;;4992095;28;20395;-83
2022/07/05 03:19:54;;;;;;;8.35;2.08;;;;;;;;;;4992145;28;20037;-81
2022/07/05 03:22:20;;;;;;;5.05;2.15;;;;;;;;;;4991820;28;20022;-81
2022/07/05 03:24:45;;;;;;;7.07;2.20;;;;;;;;;;4991839;28;20026;-81
2022/07/05 03:27:10;;;;;;;6.60;2.20;;;;;;;;;;4992170;28;20023;-82
2022/07/05 03:29:36;;;;;;;6.15;2.10;;;;;;;;;;4991746;28;20097;-79
2022/07/05 03:32:01;;;;;;;11.15;2.10;;;;;;;;;;4991991;28;20030;-80
2022/07/05 03:34:27;;;;;;;8.45;2.25;;;;;;;;;;4991874;28;20042;-79
2022/07/05 03:36:52;;;;;;;7.10;2.13;;;;;;;;;;4993879;28;20306;-81
2022/07/05 03:39:18;;;;;;;6.13;2.28;;;;;;;;;;4993099;28;20053;-81
2022/07/05 03:41:43;;;;;;;7.07;2.60;;;;;;;;;;4991784;28;20102;-80
2022/07/05 03:44:08;;;;;;;10.25;2.67;;;;;;;;;;4991714;28;20030;-78
2022/07/05 03:46:34;;;;;;;7.97;2.53;;;;;;;;;;4991913;28;20474;-78
2022/07/05 03:48:59;;;;;;;7.72;2.92;;;;;;;;;;4991582;28;20027;-77
2022/07/05 03:51:25;;;;;;;6.40;2.42;;;;;;;;;;4991672;28;20030;-78
2022/07/05 03:53:51;;;;;;;10.88;2.70;;;;;;;;;;4991308;28;20034;-81
2022/07/05 03:56:19;;;;;;;10.80;2.95;;;;;;;;;;4991216;28;20046;-81
2022/07/05 03:58:47;;;;;;;8.77;3.00;;;;;;;;;;4991277;28;20034;-81
2022/07/05 04:01:12;;;;;;;7.80;2.78;;;;;;;;;;4990557;28;20018;-81
2022/07/05 04:03:38;;;;;;;10.18;2.90;;;;;;;;;;4991306;28;20390;-79
2022/07/05 04:06:03;;;;;;;6.32;2.70;;;;;;;;;;4991612;28;20035;-80
2022/07/05 04:08:29;;;;;;;8.55;2.97;;;;;;;;;;4990975;28;20026;-81
2022/07/05 04:10:54;;;;;;;7.00;3.00;;;;;;;;;;4994185;28;20092;-80
2022/07/05 04:13:19;;;;;;;9.02;3.08;;;;;;;;;;5000676;28;20036;-80
2022/07/05 04:15:45;;;;;;;9.13;3.33;;;;;;;;;;5001037;28;20033;-76
2022/07/05 04:18:10;;;;;;;10.50;3.35;;;;;;;;;;5000959;28;20034;-76
2022/07/05 04:20:36;;;;;;;8.90;3.40;;;;;;;;;;5001072;28;20433;-75
2022/07/05 04:23:01;;;;;;;11.02;4.20;;;;;;;;;;5000722;28;20291;-77
2022/07/05 04:25:27;;;;;;;11.10;3.88;;;;;;;;;;4983371;28;20030;-76
2022/07/05 04:27:54;;;;;;;10.40;3.58;;;;;;;;;;5000442;28;20037;-76
2022/07/05 04:30:21;;;;;;;7.93;3.35;;;;;;;;;;5001109;28;20089;-77
2022/07/05 04:32:47;;;;;;;8.35;3.50;;;;;;;;;;5000791;28;20038;-77
2022/07/05 04:35:13;;;;;;;8.90;3.58;;;;;;;;;;5001070;28;20203;-76
2022/07/05 04:37:39;;;;;;;11.07;3.53;;;;;;;;;;4983035;28;20031;-77
2022/07/05 04:40:06;;;;;;;10.00;3.40;;;;;;;;;;5000195;28;20038;-79
2022/07/05 04:42:32;;;;;;;7.47;3.42;;;;;;;;;;5000387;28;20150;-77
2022/07/05 04:44:58;;;;;;;7.00;3.55;;;;;;;;;;4983183;28;20030;-78
2022/07/05 04:47:25;;;;;;;9.25;3.63;;;;;;;;;;5000957;28;20103;-78
2022/07/05 04:49:50;;;;;;;10.85;3.55;;;;;;;;;;5000214;28;20034;-75
2022/07/05 04:52:16;;;;;;;10.88;3.70;;;;;;;;;;5000450;28;20029;-78
2022/07/05 04:54:41;;;;;;;9.13;3.50;;;;;;;;;;5000368;28;20038;-76
2022/07/05 04:57:07;;;;;;;10.48;3.67;;;;;;;;;;5000674;28;20326;-78
2022/07/05 04:59:32;;;;;;;10.93;3.45;;;;;;;;;;5000299;28;20101;-77
2022/07/05 05:01:58;;;;;;;8.88;3.83;;;;;;;;;;5000689;28;20254;-77
2022/07/05 05:04:23;;;;;;;8.60;3.40;;;;;;;;;;5000508;28;20030;-79
2022/07/05 05:06:48;;;;;;;11.50;3.95;;;;;;;;;;5001098;28;20038;-76
2022/07/05 05:09:14;;;;;;;11.63;3.67;;;;;;;;;;5000760;28;20104;-80
2022/07/05 05:11:39;;;;;;;9.25;3.50;;;;;;;;;;5000757;28;20267;-80
2022/07/05 05:14:05;;;;;;;9.73;3.60;;;;;;;;;;5004340;28;20078;-79
2022/07/05 05:16:30;;;;;;;9.80;3.30;;;;;;;;;;5004378;28;20191;-80
2022/07/05 05:18:56;;;;;;;12.10;3.53;;;;;;;;;;5004128;28;20056;-79
2022/07/05 05:21:21;;;;;;;8.10;3.60;;;;;;;;;;5004443;28;20329;-80
2022/07/05 05:23:47;;;;;;;12.70;3.65;;;;;;;;;;4986504;28;20105;-79
2022/07/05 05:26:12;;;;;;;7.97;3.33;;;;;;;;;;5004131;28;20025;-79
2022/07/05 05:28:38;;;;;;;11.23;3.50;;;;;;;;;;5003928;28;20501;-79
2022/07/05 05:31:04;;;;;;;8.10;3.20;;;;;;;;;;5003778;28;20113;-81
2022/07/05 05:33:30;;;;;;;9.38;3.47;;;;;;;;;;5003713;28;20030;-79
2022/07/05 05:35:55;;;;;;;12.10;3.35;;;;;;;;;;4980554;28;20036;-78
2022/07/05 05:38:21;;;;;;;10.48;3.55;;;;;;;;;;4994138;28;20101;-74
2022/07/05 05:40:46;;;;;;;10.10;3.10;;;;;;;;;;4993885;28;20376;-77
2022/07/05 05:43:12;;;;;;;9.70;3.15;;;;;;;;;;4993800;28;20030;-79
2022/07/05 05:45:37;;;;;;;8.93;2.88;;;;;;;;;;4994007;28;20521;-74
2022/07/05 05:48:06;;;;;;;10.18;2.95;;;;;;;;;;4994447;28;20030;-74
2022/07/05 05:50:34;;;;;;;10.45;3.10;;;;;;;;;;4993596;28;20054;-76
2022/07/05 05:53:01;;;;;;;9.90;3.05;;;;;;;;;;4993645;28;20034;-76
2022/07/05 05:55:28;;;;;;;10.10;3.10;;;;;;;;;;4993559;28;20125;-74
2022/07/05 05:57:54;;;;;;;6.97;3.17;;;;;;;;;;4993563;28;20479;-75
2022/07/05 06:00:21;;;;;;;8.38;3.00;;;;;;;;;;4993360;28;20018;-77
2022/07/05 06:02:49;;;;;;;9.65;3.10;;;;;;;;;;4993513;28;20031;-76
2022/07/05 06:05:15;;;;;;;8.93;3.17;;;;;;;;;;4993964;28;20030;-77
2022/07/05 06:07:50;;;;;;;10.23;2.72;;;;;;;;;;4993555;28;20106;-78
2022/07/05 06:10:36;;;;;;;5.55;2.70;;;;;;;;;;4993484;28;20034;-78
2022/07/05 06:13:05;;;;;;;10.32;2.88;;;;;;;;;;4993192;28;20141;-75
2022/07/05 06:15:31;;;;;;;8.73;2.92;;;;;;;;;;4993399;28;20030;-78
2022/07/05 06:17:57;;;;;;;16.83;3.60;;;;;;;;;;4993267;28;20422;-80
2022/07/05 06:20:26;;;;;;;10.38;2.90;;;;;;;;;;4993661;28;20478;-80
2022/07/05 06:22:52;;;;;;;12.48;3.40;;;;;;;;;;4993205;28;20026;-80
2022/07/05 06:25:18;;;;;;;10.63;2.80;;;;;;;;;;4992751;28;20026;-75
2022/07/05 06:27:45;;;;;;;9.00;3.03;;;;;;;;;;4993468;28;20085;-77
2022/07/05 06:30:14;;;;;;;7.38;2.70;;;;;;;;;;4993165;28;20030;-78
2022/07/05 06:32:39;;;;;;;8.45;2.97;;;;;;;;;;4993007;28;20081;-77
2022/07/05 06:35:05;;;;;;;11.95;3.03;;;;;;;;;;4992821;28;20023;-78
2022/07/05 06:37:43;;;;;;;7.03;2.80;;;;;;;;;;4991407;28;20043;-74
2022/07/05 06:40:11;;;;;;;10.70;2.80;;;;;;;;;;4991487;28;20033;-79
2022/07/05 06:42:37;;;;;;;7.65;2.70;;;;;;;;;;4995953;28;20165;-80
2022/07/05 06:45:03;;;;;;;12.90;2.60;;;;;;;;;;4991033;28;20112;-77
2022/07/05 06:47:28;;;;;;;7.55;2.40;;;;;;;;;;4975419;28;20105;-79
2022/07/05 06:49:53;;;;;;;8.38;2.42;;;;;;;;;;4991309;28;20432;-78
2022/07/05 06:52:19;;;;;;;7.95;2.45;;;;;;;;;;4991450;28;20489;-79
2022/07/05 06:54:44;;;;;;;6.88;2.70;;;;;;;;;;4990345;28;20031;-79
2022/07/05 06:57:10;;;;;;;7.18;2.40;;;;;;;;;;4991383;28;20446;-77
2022/07/05 06:59:36;;;;;;;5.10;2.10;;;;;;;;;;4992155;28;20109;-74
2022/07/05 07:02:02;;;;;;;9.20;2.60;;;;;;;;;;4992400;28;20368;-77
2022/07/05 07:04:27;;;;;;;5.90;2.00;;;;;;;;;;4992429;28;20610;-76
2022/07/05 07:06:52;;;;;;;8.43;2.17;;;;;;;;;;4992855;28;20031;-73
2022/07/05 07:09:18;;;;;;;5.00;1.90;;;;;;;;;;4993349;28;20109;-74
2022/07/05 07:11:44;;;;;;;4.93;1.90;;;;;;;;;;4992068;28;20023;-73
2022/07/05 07:14:10;;;;;;;7.65;1.90;;;;;;;;;;4992117;28;20026;-74
2022/07/05 07:16:35;;;;;;;5.60;1.80;;;;;;;;;;4992138;28;20105;-74
2022/07/05 07:19:01;;;;;;;7.43;1.98;;;;;;;;;;4992208;28;20023;-74
2022/07/05 07:21:26;;;;;;;7.07;2.05;;;;;;;;;;4992196;28;20665;-75
2022/07/05 07:23:52;;;;;;;6.05;2.10;;;;;;;;;;4992030;28;20058;-76
2022/07/05 07:26:17;;;;;;;5.57;1.90;;;;;;;;;;4991789;28;20641;-75
2022/07/05 07:28:43;;;;;;;7.80;2.03;;;;;;;;;;4991989;28;20056;-75
2022/07/05 07:31:08;;;;;;;7.15;1.73;;;;;;;;;;4991964;28;20153;-75
2022/07/05 07:33:34;;;;;;;6.43;1.88;;;;;;;;;;4991828;28;20375;-73
2022/07/05 07:35:59;;;;;;;8.13;2.10;;;;;;;;;;4974288;28;20572;-74
2022/07/05 07:38:25;;;;;;;7.50;1.98;;;;;;;;;;4991798;28;20474;-75
2022/07/05 07:40:52;;;;;;;7.75;1.98;;;;;;;;;;4991639;28;20033;-74
2022/07/05 07:43:17;;;;;;;6.70;2.00;;;;;;;;;;4991406;28;20037;-76
2022/07/05 07:45:43;;;;;;;6.47;1.90;;;;;;;;;;4991374;28;20026;-76
2022/07/05 07:48:08;;;;;;;8.63;2.10;;;;;;;;;;4991666;28;20101;-76
2022/07/05 07:50:34;;;;;;;5.28;1.90;;;;;;;;;;4991392;28;20030;-76
2022/07/05 07:52:59;;;;;;;6.50;2.00;;;;;;;;;;4991548;28;20026;-76
2022/07/05 07:55:25;;;;;;;6.57;1.90;;;;;;;;;;4991437;28;20125;-75
2022/07/05 07:57:50;;;;;;;12.15;1.80;;;;;;;;;;4973933;28;20383;-75
2022/07/05 08:00:16;;;;;;;3.63;1.80;;;;;;;;;;4991018;28;20058;-74
2022/07/05 08:02:41;;;;;;;3.92;1.65;;;;;;;;;;4991270;28;20038;-75
2022/07/05 08:05:09;;;;;;;7.00;1.88;;;;;;;;;;4991181;28;20073;-75
2022/07/05 08:07:35;;;;;;;7.30;2.10;;;;;;;;;;4991233;28;20034;-74
2022/07/05 08:10:00;;;;;;;7.53;1.90;;;;;;;;;;4991203;28;20474;-75
2022/07/05 08:12:26;;;;;;;5.80;1.90;;;;;;;;;;4991269;28;20122;-76
2022/07/05 08:14:51;;;;;;;7.10;1.98;;;;;;;;;;4991261;28;20117;-75
2022/07/05 08:17:20;;;;;;;5.53;1.80;;;;;;;;;;4991055;28;20065;-75
2022/07/05 08:22:29;;;;;;;4.57;1.60;;;;;;;;;;4991066;28;20064;-77
2022/07/05 08:24:55;;;;;;;5.70;1.80;;;;;;;;;;4991031;28;20244;-76
2022/07/05 08:27:20;;;;;;;4.70;2.00;;;;;;;;;;4990902;28;20027;-75
2022/07/05 08:29:46;;;;;;;6.43;2.10;;;;;;;;;;4990808;28;20641;-76
2022/07/05 08:32:11;;;;;;;5.57;1.73;;;;;;;;;;4973592;28;20027;-76
2022/07/05 08:34:37;;;;;;;7.18;1.50;;;;;;;;;;4973375;28;20035;-75
2022/07/05 08:37:03;;;;;;;6.47;1.90;;;;;;;;;;4990917;28;20049;-77
2022/07/05 08:39:29;;;;;;;5.00;1.70;;;;;;;;;;4990759;28;20027;-77
2022/07/05 08:41:57;;;;;;;5.60;1.77;;;;;;;;;;4990858;28;20030;-77
2022/07/05 08:44:22;;;;;;;4.20;1.70;;;;;;;;;;4990699;28;20034;-76
2022/07/05 08:46:51;;;;;;;12.60;2.13;;;;;;;;;;4990270;28;20031;-77
2022/07/05 08:49:27;;;;;;;6.85;1.98;;;;;;;;;;4990856;28;20402;-77
2022/07/05 08:51:54;;;;;;;4.22;1.77;;;;;;;;;;4990237;28;20022;-77
2022/07/05 08:54:22;;;;;;;5.22;1.90;;;;;;;;;;4990666;28;20034;-77
2022/07/05 08:56:47;;;;;;;6.25;1.90;;;;;;;;;;4990589;28;20046;-77
2022/07/05 08:59:13;;;;;;;6.07;1.98;;;;;;;;;;4990694;28;20375;-76
2022/07/05 09:01:39;;;;;;;7.70;1.90;;;;;;;;;;4990579;28;20596;-76
2022/07/05 09:04:09;;;;;;;9.05;2.30;;;;;;;;;;4990771;28;20034;-76
2022/07/05 09:06:37;;;;;;;7.85;2.00;;;;;;;;;;4990671;28;20026;-77
2022/07/05 09:09:03;;;;;;;7.65;2.10;;;;;;;;;;4990412;28;20050;-76
2022/07/05 09:11:40;;;;;;;7.85;2.03;;;;;;;;;;4990323;28;20054;-76
2022/07/05 09:14:17;;;;;;;6.00;2.05;;;;;;;;;;4990312;28;20034;-76
2022/07/05 09:16:43;;;;;;;4.68;1.90;;;;;;;;;;4990316;28;20034;-75
2022/07/05 09:19:08;;;;;;;5.78;2.20;;;;;;;;;;4973154;28;20026;-76
2022/07/05 09:21:34;;;;;;;6.55;2.05;;;;;;;;;;4990192;28;20033;-76
2022/07/05 09:24:05;;;;;;;7.78;2.20;;;;;;;;;;4990217;28;20038;-75
2022/07/05 09:26:39;;;;;;;3.95;2.13;;;;;;;;;;4990340;28;20080;-76
2022/07/05 09:29:10;;;;;;;7.00;2.30;;;;;;;;;;4990249;28;20023;-77
2022/07/05 09:31:37;;;;;;;5.07;2.13;;;;;;;;;;4990004;28;20513;-76
2022/07/05 09:34:08;;;;;;;7.75;2.70;;;;;;;;;;4990071;28;20080;-77
2022/07/05 09:37:02;;;;;;;5.78;2.03;;;;;;;;;;4990311;28;20089;-78
2022/07/05 09:39:35;;;;;;;6.80;2.42;;;;;;;;;;4990444;28;20041;-76
2022/07/05 09:42:22;;;;;;;8.23;2.33;;;;;;;;;;4990178;28;20042;-76
2022/07/05 09:44:49;;;;;;;6.28;2.20;;;;;;;;;;4989960;28;20486;-76
2022/07/05 09:47:16;;;;;;;8.07;2.40;;;;;;;;;;4990090;28;20105;-75
2022/07/05 09:49:56;;;;;;;7.55;2.28;;;;;;;;;;4990304;28;20614;-77
2022/07/05 09:52:35;;;;;;;5.80;2.40;;;;;;;;;;4989926;28;20031;-76
2022/07/05 09:55:19;;;;;;;6.65;2.10;;;;;;;;;;4990171;28;20398;-76
2022/07/05 09:57:46;;;;;;;5.45;2.10;;;;;;;;;;4990218;28;20033;-76
2022/07/05 10:00:20;;;;;;;5.25;2.10;;;;;;;;;;4992657;28;20030;-76
2022/07/05 10:02:51;;;;;;;6.93;2.20;;;;;;;;;;4993424;28;20041;-76
2022/07/05 10:05:17;;;;;;;6.68;2.50;;;;;;;;;;4993299;28;20157;-76
2022/07/05 10:07:50;;;;;;;6.25;2.20;;;;;;;;;;4975802;28;20062;-76
2022/07/05 10:10:18;;;;;;;7.78;2.25;;;;;;;;;;4993497;28;20382;-76
2022/07/05 10:12:45;;;;;;;7.13;2.10;;;;;;;;;;4993196;28;20034;-76
2022/07/05 10:15:13;;;;;;;5.68;2.10;;;;;;;;;;4993523;28;20501;-74
2022/07/05 10:17:45;;;;;;;5.55;1.90;;;;;;;;;;4993257;28;20073;-75
2022/07/05 10:20:23;;;;;;;3.97;1.55;;;;;;;;;;4993131;28;20019;-76
2022/07/05 10:22:49;;;;;;;7.57;1.70;;;;;;;;;;4992785;28;20026;-73
2022/07/05 10:25:15;;;;;;;3.72;1.70;;;;;;;;;;4993198;28;20106;-76
2022/07/05 10:27:41;;;;;;;3.15;1.70;;;;;;;;;;4993346;28;20027;-73
2022/07/05 10:30:07;;;;;;;3.95;1.90;;;;;;;;;;4993093;28;20026;-73
2022/07/05 10:32:35;;;;;;;7.30;2.10;;;;;;;;;;4992917;28;20057;-74
2022/07/05 10:35:02;;;;;;;5.35;1.85;;;;;;;;;;4992952;28;20027;-75
2022/07/05 10:37:30;;;;;;;3.13;1.50;;;;;;;;;;4992817;28;20030;-78
2022/07/05 10:39:58;;;;;;;4.35;1.55;;;;;;;;;;4992776;28;20026;-74
2022/07/05 10:42:27;;;;;;;3.13;1.67;;;;;;;;;;4992997;28;20474;-74
2022/07/05 10:44:52;;;;;;;2.83;1.38;;;;;;;;;;4992777;28;20034;-77
2022/07/05 10:47:19;;;;;;;6.13;1.80;;;;;;;;;;4992931;28;20026;-75
2022/07/05 10:49:59;;;;;;;5.07;1.40;;;;;;;;;;4992805;28;20203;-76
2022/07/05 10:52:25;;;;;;;2.85;1.60;;;;;;;;;;4992514;28;20026;-74
2022/07/05 10:55:18;;;;;;;6.40;1.40;;;;;;;;;;4992441;28;20041;-75
2022/07/05 10:57:44;;;;;;;2.47;1.50;;;;;;;;;;4992557;28;20486;-75
2022/07/05 11:00:11;;;;;;;5.57;1.55;;;;;;;;;;4975197;28;20030;-74
2022/07/05 11:02:37;;;;;;;5.57;1.85;;;;;;;;;;4992240;28;20034;-76
2022/07/05 11:05:03;;;;;;;4.00;1.58;;;;;;;;;;4992502;28;20030;-76
2022/07/05 11:07:56;;;;;;;4.88;1.30;;;;;;;;;;4992365;28;20030;-75
2022/07/05 11:10:22;;;;;;;2.60;1.17;;;;;;;;;;4974457;28;20034;-75
2022/07/05 11:12:47;;;;;;;3.10;1.20;;;;;;;;;;4992073;28;20076;-76
2022/07/05 11:15:14;;;;;;;4.47;1.40;;;;;;;;;;4992171;28;20026;-76
2022/07/05 11:17:39;;;;;;;5.03;1.10;;;;;;;;;;4992194;28;20515;-75
2022/07/05 11:20:14;;;;;;;4.53;1.20;;;;;;;;;;4992159;28;20629;-76
2022/07/05 11:23:01;;;;;;;4.20;1.30;;;;;;;;;;4991876;28;20026;-75
2022/07/05 11:25:28;;;;;;;5.25;1.30;;;;;;;;;;4992225;28;20482;-76
2022/07/05 11:28:11;;;;;;;3.75;1.20;;;;;;;;;;4992287;28;20406;-76
2022/07/05 11:31:03;;;;;;;3.88;1.40;;;;;;;;;;4991853;28;20092;-76
2022/07/05 11:33:36;;;;;;;4.57;1.40;;;;;;;;;;4987781;28;20046;-76
2022/07/05 11:36:04;;;;;;;2.85;1.20;;;;;;;;;;4992033;28;20601;-76
2022/07/05 11:38:31;;;;;;;3.42;1.10;;;;;;;;;;4991745;28;20084;-75
2022/07/05 11:41:10;;;;;;;3.53;1.27;;;;;;;;;;4991814;28;20030;-77
2022/07/05 11:43:36;;;;;;;3.15;1.10;;;;;;;;;;4991869;28;20034;-77
2022/07/05 11:46:02;;;;;;;5.20;1.30;;;;;;;;;;4991459;28;20033;-75
2022/07/05 11:48:29;;;;;;;3.83;1.30;;;;;;;;;;4991486;28;20088;-76
2022/07/05 11:50:55;;;;;;;2.83;1.10;;;;;;;;;;4973958;28;20030;-75
2022/07/05 11:53:28;;;;;;;4.68;1.00;;;;;;;;;;4991430;28;20157;-73
2022/07/05 11:55:56;;;;;;;5.95;1.30;;;;;;;;;;4991151;28;20054;-74
2022/07/05 11:58:22;;;;;;;2.83;1.30;;;;;;;;;;4991537;28;20371;-74
2022/07/05 12:00:54;;;;;;;3.90;1.17;;;;;;;;;;4991577;28;20463;-76
2022/07/05 12:03:20;;;;;;;2.80;1.20;;;;;;;;;;4991113;28;20026;-73
2022/07/05 12:05:45;;;;;;;3.00;1.27;;;;;;;;;;4991389;28;20018;-76
2022/07/05 12:08:11;;;;;;;4.28;1.20;;;;;;;;;;4973560;28;20093;-77
2022/07/05 12:13:20;;;;;;;3.15;1.10;;;;;;;;;;4991160;28;20038;-77
2022/07/05 12:15:46;;;;;;;3.85;0.93;;;;;;;;;;4991282;28;20031;-77
2022/07/05 12:18:12;;;;;;;3.85;1.13;;;;;;;;;;4973833;28;20026;-76
2022/07/05 12:20:39;;;;;;;4.93;1.20;;;;;;;;;;4991012;28;20023;-76
2022/07/05 12:23:06;;;;;;;7.22;1.23;;;;;;;;;;4990089;28;20032;-75
2022/07/05 12:25:32;;;;;;;2.05;1.20;;;;;;;;;;4991044;28;20054;-76
2022/07/05 12:28:00;;;;;;;3.90;1.30;;;;;;;;;;4991315;28;20038;-77
2022/07/05 12:30:28;;;;;;;2.60;1.10;;;;;;;;;;4990952;28;20499;-75
2022/07/05 12:33:06;;;;;;;3.75;1.13;;;;;;;;;;4991016;28;20540;-75
2022/07/05 12:35:42;;;;;;;2.35;1.20;;;;;;;;;;4975041;28;20029;-75
2022/07/05 12:38:20;;;;;;;3.65;1.48;;;;;;;;;;4990870;28;20054;-75
2022/07/05 12:40:48;;;;;;;6.15;1.30;;;;;;;;;;4990875;28;20398;-75
2022/07/05 12:43:16;;;;;;;3.65;1.30;;;;;;;;;;4973066;28;20023;-75
2022/07/05 12:45:59;;;;;;;5.03;1.40;;;;;;;;;;4990624;28;20121;-75
2022/07/05 12:48:38;;;;;;;2.88;1.05;;;;;;;;;;4990819;28;20517;-76
2022/07/05 12:51:05;;;;;;;2.77;1.13;;;;;;;;;;4990878;28;20026;-75
2022/07/05 12:59:07;;;;;;;4.00;1.20;;;;;;;;;;4990667;28;20080;-75
2022/07/05 13:01:40;;;;;;;5.07;1.20;;;;;;;;;;4990316;28;20752;-76
2022/07/05 13:04:19;;;;;;;5.57;1.25;;;;;;;;;;4990527;28;20033;-76
2022/07/05 13:07:03;;;;;;;3.25;1.30;;;;;;;;;;4990561;28;20041;-78
2022/07/05 13:09:29;;;;;;;5.85;1.38;;;;;;;;;;4990594;28;20029;-75
2022/07/05 13:12:07;;;;;;;2.92;1.35;;;;;;;;;;4990347;28;20031;-75
2022/07/05 13:14:33;;;;;;;4.72;1.50;;;;;;;;;;4990421;28;20022;-75
2022/07/05 13:16:58;;;;;;;3.88;1.38;;;;;;;;;;4990468;28;20101;-77
2022/07/05 13:19:24;;;;;;;6.63;1.48;;;;;;;;;;4990447;28;20025;-77
2022/07/05 13:21:49;;;;;;;4.72;1.23;;;;;;;;;;4990390;28;20089;-78
2022/07/05 13:24:14;;;;;;;2.47;1.17;;;;;;;;;;4990461;28;20034;-76
2022/07/05 13:26:40;;;;;;;3.35;1.20;;;;;;;;;;4990522;28;20054;-76
2022/07/05 13:29:05;;;;;;;4.72;1.30;;;;;;;;;;4990558;28;20033;-75
2022/07/05 13:31:31;;;;;;;4.85;1.20;;;;;;;;;;4990230;28;20035;-73
2022/07/05 13:33:58;;;;;;;7.82;1.55;;;;;;;;;;4992910;28;20496;-73
2022/07/05 13:36:23;;;;;;;8.00;1.33;;;;;;;;;;4993996;28;20038;-75
2022/07/05 13:38:49;;;;;;;4.95;1.33;;;;;;;;;;4994049;28;20022;-75
2022/07/05 13:41:14;;;;;;;3.15;1.20;;;;;;;;;;4994090;28;20084;-73
2022/07/05 13:43:39;;;;;;;3.95;1.30;;;;;;;;;;4993855;28;20610;-74
2022/07/05 13:46:06;;;;;;;3.55;1.20;;;;;;;;;;4993738;28;20030;-73
2022/07/05 13:48:31;;;;;;;4.40;1.40;;;;;;;;;;4993752;28;20031;-73
2022/07/05 13:50:56;;;;;;;5.80;1.40;;;;;;;;;;4993742;28;20041;-74
2022/07/05 13:53:22;;;;;;;4.53;1.40;;;;;;;;;;4993270;28;20022;-78
2022/07/05 13:55:47;;;;;;;4.15;1.23;;;;;;;;;;4993536;28;20047;-75
2022/07/05 13:58:13;;;;;;;6.47;1.40;;;;;;;;;;4993851;28;20025;-75
2022/07/05 14:00:38;;;;;;;4.93;1.50;;;;;;;;;;4993767;28;20026;-75
2022/07/05 14:03:03;;;;;;;4.00;1.40;;;;;;;;;;4993553;28;20030;-74
2022/07/05 14:05:29;;;;;;;10.02;1.55;;;;;;;;;;4993568;28;20018;-75
2022/07/05 14:07:54;;;;;;;3.75;1.48;;;;;;;;;;4993443;28;20109;-75
2022/07/05 14:10:20;;;;;;;3.55;1.30;;;;;;;;;;4993526;28;20038;-75
2022/07/05 14:12:45;;;;;;;3.42;1.30;;;;;;;;;;4993215;28;20034;-76
2022/07/05 14:15:11;;;;;;;4.40;1.40;;;;;;;;;;4993621;28;20042;-76
2022/07/05 14:17:36;;;;;;;3.45;1.50;;;;;;;;;;4993513;28;20215;-76
2022/07/05 14:20:02;;;;;;;4.57;1.30;;;;;;;;;;4993432;28;20034;-74
2022/07/05 14:22:28;;;;;;;4.50;1.35;;;;;;;;;;4992933;28;20018;-74
2022/07/05 14:24:53;;;;;;;6.85;1.40;;;;;;;;;;4993147;28;20073;-76
2022/07/05 14:27:19;;;;;;;5.88;1.40;;;;;;;;;;4993103;28;20057;-76
2022/07/05 14:29:44;;;;;;;3.95;1.55;;;;;;;;;;4993286;28;20033;-76
2022/07/05 14:32:09;;;;;;;7.70;1.50;;;;;;;;;;4993102;28;20026;-76
2022/07/05 14:34:35;;;;;;;4.97;1.38;;;;;;;;;;4993089;28;20080;-76
2022/07/05 14:37:00;;;;;;;6.60;1.42;;;;;;;;;;4993035;28;20025;-76
2022/07/05 14:39:26;;;;;;;3.90;1.20;;;;;;;;;;4993326;28;20387;-73
2022/07/05 14:41:51;;;;;;;4.13;1.40;;;;;;;;;;4992959;28;20410;-74
2022/07/05 14:44:17;;;;;;;6.00;1.25;;;;;;;;;;4991939;28;20398;-73
2022/07/05 14:46:42;;;;;;;8.73;1.55;;;;;;;;;;4992702;28;20023;-75
2022/07/05 14:49:08;;;;;;;4.32;1.27;;;;;;;;;;4992958;28;20493;-73
2022/07/05 14:51:33;;;;;;;6.25;1.58;;;;;;;;;;4975247;28;20030;-73
2022/07/05 14:53:59;;;;;;;5.00;1.48;;;;;;;;;;4992469;28;20516;-77